createdAt,value
2019-05-17T00:00:47.510Z,8.37
2019-05-17T00:03:17.212Z,11.33
2019-05-17T00:05:46.699Z,13.90
2019-05-17T00:08:16.496Z,8.83
2019-05-17T00:10:46.971Z,10.97
2019-05-17T00:13:17.396Z,8.77
2019-05-17T00:15:47.488Z,12.90
2019-05-17T00:18:17.293Z,8.00
2019-05-17T00:20:46.972Z,10.30
2019-05-17T00:23:17.415Z,12.70
2019-05-17T00:25:47.095Z,12.77
2019-05-17T00:28:16.589Z,13.13
2019-05-17T00:30:46.543Z,12.70
2019-05-17T00:33:16.951Z,16.85
2019-05-17T00:35:47.002Z,12.60
2019-05-17T00:38:16.995Z,13.32
2019-05-17T00:40:47.042Z,15.98
2019-05-17T00:43:17.059Z,12.37
2019-05-17T00:45:46.912Z,15.93
2019-05-17T00:48:17.151Z,16.00
2019-05-17T00:50:53.418Z,20.90
2019-05-17T00:53:17.707Z,17.87
2019-05-17T00:55:47.077Z,12.58
2019-05-17T00:58:17.236Z,36.38
2019-05-17T01:00:47.960Z,17.90
2019-05-17T01:03:17.766Z,15.58
2019-05-17T01:05:47.377Z,16.60
2019-05-17T01:08:17.449Z,15.55
2019-05-17T01:10:47.499Z,19.40
2019-05-17T01:13:17.285Z,15.63
2019-05-17T01:15:47.404Z,17.15
2019-05-17T01:18:17.135Z,16.85
2019-05-17T01:20:47.442Z,20.10
2019-05-17T01:23:16.853Z,18.77
2019-05-17T01:25:48.032Z,31.70
2019-05-17T01:28:16.988Z,26.10
2019-05-17T01:30:46.412Z,17.98
2019-05-17T01:33:17.201Z,25.20
2019-05-17T01:35:46.838Z,20.50
2019-05-17T01:38:17.776Z,27.10
2019-05-17T01:40:47.238Z,16.40
2019-05-17T01:43:16.782Z,28.70
2019-05-17T01:45:47.908Z,21.30
2019-05-17T01:48:17.009Z,30.05
2019-05-17T01:50:46.546Z,24.37
2019-05-17T01:53:16.604Z,21.00
2019-05-17T01:55:46.600Z,23.33
2019-05-17T01:58:16.373Z,27.30
2019-05-17T02:00:46.581Z,23.62
2019-05-17T02:03:17.332Z,31.67
2019-05-17T02:05:47.489Z,29.57
2019-05-17T02:08:17.211Z,25.93
2019-05-17T02:10:46.856Z,30.75
2019-05-17T02:13:16.444Z,24.70
2019-05-17T02:15:47.054Z,27.85
2019-05-17T02:18:17.420Z,26.77
2019-05-17T02:20:46.875Z,24.17
2019-05-17T02:23:17.381Z,31.52
2019-05-17T02:25:47.257Z,22.30
2019-05-17T02:28:16.860Z,29.90
2019-05-17T02:30:46.604Z,21.10
2019-05-17T02:33:16.590Z,46.63
2019-05-17T02:35:45.770Z,20.37
2019-05-17T02:38:14.993Z,30.37
2019-05-17T02:40:44.294Z,32.60
2019-05-17T02:43:13.554Z,27.02
2019-05-17T02:45:43.499Z,25.30
2019-05-17T02:48:13.593Z,34.30
2019-05-17T02:50:47.376Z,28.07
2019-05-17T02:53:14.960Z,24.95
2019-05-17T02:55:44.211Z,22.22
2019-05-17T02:58:13.485Z,25.12
2019-05-17T03:00:44.337Z,22.20
2019-05-17T03:03:13.912Z,31.33
2019-05-17T03:05:43.521Z,46.53
2019-05-17T03:08:12.721Z,31.40
2019-05-17T03:10:43.217Z,26.02
2019-05-17T03:13:17.045Z,35.23
2019-05-17T03:15:43.832Z,31.62
2019-05-17T03:18:13.493Z,30.12
2019-05-17T03:20:43.301Z,23.30
2019-05-17T03:23:12.925Z,25.55
2019-05-17T03:25:43.993Z,28.55
2019-05-17T03:28:13.648Z,31.77
2019-05-17T03:30:46.592Z,34.23
2019-05-17T03:33:16.917Z,30.55
2019-05-17T03:35:47.468Z,22.85
2019-05-17T03:38:16.810Z,32.38
2019-05-17T03:41:16.641Z,31.02
2019-05-17T03:43:17.035Z,33.38
2019-05-17T03:45:46.369Z,27.45
2019-05-17T03:48:15.875Z,27.22
2019-05-17T04:05:25.041Z,30.48
2019-05-17T04:07:54.227Z,25.20
2019-05-17T04:10:23.489Z,32.05
2019-05-17T04:12:53.270Z,22.05
2019-05-17T04:15:24.015Z,30.47
2019-05-17T04:17:54.835Z,21.70
2019-05-17T04:20:24.372Z,23.22
2019-05-17T04:22:57.143Z,24.77
2019-05-17T04:25:26.346Z,24.37
2019-05-17T04:27:55.637Z,27.30
2019-05-17T04:30:24.875Z,34.40
2019-05-17T04:32:54.141Z,35.78
2019-05-17T04:35:23.513Z,36.98
2019-05-17T04:37:53.275Z,35.78
2019-05-17T04:40:23.265Z,28.40
2019-05-17T04:42:52.898Z,32.50
2019-05-17T04:45:23.178Z,38.60
2019-05-17T04:47:53.089Z,39.93
2019-05-17T04:50:23.146Z,39.78
2019-05-17T04:52:53.691Z,28.87
2019-05-17T04:55:23.556Z,40.25
2019-05-17T04:57:53.303Z,28.75
2019-05-17T05:00:22.732Z,39.18
2019-05-17T05:02:54.049Z,41.37
2019-05-17T05:05:23.130Z,37.63
2019-05-17T05:07:53.587Z,40.80
2019-05-17T05:10:23.335Z,47.17
2019-05-17T05:12:52.765Z,32.28
2019-05-17T05:15:38.928Z,35.30
2019-05-17T05:18:08.760Z,41.42
2019-05-17T05:20:38.045Z,39.55
2019-05-17T05:23:07.526Z,31.50
2019-05-17T05:25:37.095Z,23.92
2019-05-17T05:28:06.422Z,42.40
2019-05-17T05:30:35.613Z,32.90
2019-05-17T05:33:04.907Z,38.05
2019-05-17T05:35:34.170Z,36.58
2019-05-17T05:38:03.452Z,32.90
2019-05-17T05:40:32.664Z,36.38
2019-05-17T05:43:02.421Z,32.28
2019-05-17T05:45:32.147Z,35.33
2019-05-17T05:48:01.938Z,35.65
2019-05-17T05:50:32.334Z,39.73
2019-05-17T05:53:02.093Z,37.95
2019-05-17T05:55:32.200Z,34.48
2019-05-17T05:58:03.018Z,37.03
2019-05-17T06:00:32.997Z,22.30
2019-05-17T06:03:04.236Z,41.02
2019-05-17T06:05:33.741Z,31.57
2019-05-17T06:08:03.066Z,27.07
2019-05-17T06:10:32.724Z,44.20
2019-05-17T06:13:03.280Z,34.10
2019-05-17T06:15:32.706Z,31.50
2019-05-17T06:18:03.011Z,31.90
2019-05-17T06:20:32.671Z,25.92
2019-05-17T06:23:02.545Z,34.60
2019-05-17T06:25:34.046Z,21.82
2019-05-17T06:28:02.360Z,30.10
2019-05-17T06:30:32.359Z,20.08
2019-05-17T06:33:02.407Z,32.47
2019-05-17T06:35:32.522Z,15.68
2019-05-17T06:38:02.096Z,22.75
2019-05-17T06:40:32.423Z,21.30
2019-05-17T06:43:04.331Z,19.32
2019-05-17T06:45:32.918Z,15.85
2019-05-17T06:48:02.646Z,17.82
2019-05-17T06:50:32.714Z,25.77
2019-05-17T06:53:03.244Z,21.52
2019-05-17T06:55:32.639Z,16.20
2019-05-17T06:58:01.896Z,19.82
2019-05-17T07:00:31.082Z,16.75
2019-05-17T07:03:00.773Z,18.45
2019-05-17T07:05:32.790Z,18.87
2019-05-17T07:08:02.011Z,20.80
2019-05-17T07:10:31.281Z,15.50
2019-05-17T07:13:01.884Z,30.55
2019-05-17T07:15:43.616Z,12.78
2019-05-17T07:18:02.546Z,18.62
2019-05-17T07:20:31.742Z,25.70
2019-05-17T07:23:01.092Z,44.05
2019-05-17T07:25:30.445Z,19.77
2019-05-17T07:28:00.579Z,21.77
2019-05-17T07:30:30.585Z,18.87
2019-05-17T07:33:00.359Z,20.70
2019-05-17T07:35:30.126Z,23.83
2019-05-17T07:37:59.700Z,17.92
2019-05-17T07:44:44.251Z,12.43
2019-05-17T07:47:13.527Z,11.12
2019-05-17T07:49:42.847Z,14.47
2019-05-17T07:52:12.102Z,13.20
2019-05-17T07:54:41.473Z,14.00
2019-05-17T07:57:10.762Z,9.33
2019-05-17T07:59:40.061Z,11.53
2019-05-17T08:02:10.602Z,9.13
2019-05-17T08:04:40.776Z,13.67
2019-05-17T08:07:11.028Z,9.17
2019-05-17T08:09:40.863Z,6.60
2019-05-17T08:12:11.181Z,12.53
2019-05-17T08:14:40.965Z,11.00
2019-05-17T08:17:10.335Z,12.00
2019-05-17T08:19:40.256Z,9.23
2019-05-17T08:22:09.840Z,6.03
2019-05-17T08:24:39.988Z,11.80
2019-05-17T08:27:10.396Z,13.53
2019-05-17T08:29:40.410Z,8.07
2019-05-17T08:32:10.391Z,9.73
2019-05-17T08:34:40.083Z,10.53
2019-05-17T08:37:09.524Z,8.07
2019-05-17T08:39:41.564Z,12.40
2019-05-17T08:42:10.750Z,10.50
2019-05-17T08:44:40.085Z,11.70
2019-05-17T08:47:10.180Z,10.13
2019-05-17T08:49:40.296Z,6.93
2019-05-17T08:52:09.961Z,7.23
2019-05-17T08:54:42.640Z,9.77
2019-05-17T08:57:10.615Z,7.15
2019-05-17T08:59:40.477Z,8.23
2019-05-17T09:02:10.815Z,9.30
2019-05-17T09:04:40.604Z,8.50
2019-05-17T09:07:09.959Z,6.20
2019-05-17T09:09:39.547Z,5.30
2019-05-17T09:12:10.914Z,6.10
2019-05-17T09:14:40.203Z,8.43
2019-05-17T09:17:10.230Z,21.03
2019-05-17T09:19:39.842Z,7.20
2019-05-17T09:22:10.442Z,7.40
2019-05-17T09:24:39.957Z,6.33
2019-05-17T09:27:10.157Z,7.20
2019-05-17T09:29:40.377Z,9.10
2019-05-17T09:32:10.051Z,8.13
2019-05-17T09:34:40.401Z,9.83
2019-05-17T09:37:09.987Z,6.00
2019-05-17T09:39:40.163Z,5.47
2019-05-17T09:42:10.377Z,7.67
2019-05-17T09:44:40.453Z,6.77
2019-05-17T09:47:10.195Z,6.23
2019-05-17T09:49:39.691Z,5.90
2019-05-17T09:52:09.553Z,7.23
2019-05-17T09:54:45.073Z,7.80
2019-05-17T09:57:10.049Z,8.90
2019-05-17T09:59:40.583Z,7.30
2019-05-17T10:02:11.072Z,6.50
2019-05-17T10:04:40.311Z,6.57
2019-05-17T10:07:10.142Z,10.20
2019-05-17T10:09:40.114Z,6.50
2019-05-17T10:12:09.712Z,7.37
2019-05-17T10:14:39.202Z,9.87
2019-05-17T10:17:09.887Z,6.23
2019-05-17T10:19:40.191Z,8.33
2019-05-17T10:22:10.350Z,4.83
2019-05-17T10:24:42.464Z,7.90
2019-05-17T10:27:11.195Z,4.83
2019-05-17T10:29:40.866Z,6.60
2019-05-17T10:32:10.581Z,5.47
2019-05-17T10:34:40.172Z,6.90
2019-05-17T10:37:10.436Z,6.43
2019-05-17T10:39:41.649Z,6.07
2019-05-17T10:42:11.049Z,7.23
2019-05-17T10:44:47.120Z,7.20
2019-05-17T10:47:11.269Z,9.77
2019-05-17T10:49:40.596Z,6.10
2019-05-17T10:52:09.785Z,7.60
2019-05-17T10:54:40.257Z,6.67
2019-05-17T10:57:10.428Z,6.73
2019-05-17T10:59:40.343Z,4.67
2019-05-17T11:02:10.073Z,5.43
2019-05-17T11:04:40.174Z,5.37
2019-05-17T11:07:11.194Z,4.93
2019-05-17T11:09:40.720Z,4.50
2019-05-17T11:12:10.088Z,5.87
2019-05-17T11:14:50.749Z,3.73
2019-05-17T11:17:10.270Z,5.60
2019-05-17T11:19:39.538Z,4.60
2019-05-17T11:22:08.725Z,4.40
2019-05-17T11:24:37.991Z,4.23
2019-05-17T11:27:07.168Z,4.50
2019-05-17T11:29:36.447Z,4.30
2019-05-17T11:32:05.731Z,5.60
2019-05-17T11:34:34.907Z,3.77
2019-05-17T11:37:04.089Z,4.77
2019-05-17T11:39:33.364Z,3.73
2019-05-17T11:42:02.540Z,3.70
2019-05-17T11:44:31.729Z,3.87
2019-05-17T11:47:01.011Z,2.60
2019-05-17T11:49:30.299Z,3.03
2019-05-17T11:51:59.540Z,3.63
2019-05-17T11:54:28.883Z,2.30
2019-05-17T11:56:58.139Z,3.03
2019-05-17T11:59:27.400Z,2.67
2019-05-17T12:01:56.791Z,13.93
2019-05-17T12:04:26.046Z,4.23
2019-05-17T12:06:55.423Z,2.40
2019-05-17T12:09:36.431Z,3.57
2019-05-17T12:11:55.693Z,3.63
2019-05-17T12:14:24.886Z,2.00
2019-05-17T12:16:54.169Z,2.97
2019-05-17T12:19:23.415Z,3.50
2019-05-17T12:21:52.683Z,3.60
2019-05-17T12:24:21.872Z,4.00
2019-05-17T12:26:51.238Z,2.60
2019-05-17T12:29:20.588Z,3.03
2019-05-17T12:31:49.987Z,2.23
2019-05-17T12:34:19.255Z,3.47
2019-05-17T12:36:48.499Z,3.00
2019-05-17T12:39:17.731Z,3.17
2019-05-17T12:41:47.163Z,2.87
2019-05-17T12:44:16.425Z,3.03
2019-05-17T12:46:45.651Z,3.43
2019-05-17T12:49:14.903Z,3.00
2019-05-17T12:51:44.161Z,2.17
2019-05-17T12:54:13.453Z,3.47
2019-05-17T12:56:42.922Z,2.90
2019-05-17T12:59:12.125Z,2.20
2019-05-17T13:01:41.483Z,3.40
2019-05-17T13:04:10.847Z,3.20
2019-05-17T13:06:40.104Z,3.00
2019-05-17T13:09:09.332Z,3.63
2019-05-17T13:11:38.592Z,2.47
2019-05-17T13:14:07.863Z,2.13
2019-05-17T13:16:37.151Z,5.37
2019-05-17T13:19:06.326Z,3.27
2019-05-17T13:21:35.500Z,2.90
2019-05-17T13:24:05.037Z,2.90
2019-05-17T13:26:34.366Z,3.23
2019-05-17T13:29:03.697Z,2.50
2019-05-17T13:31:33.130Z,2.83
2019-05-17T13:34:02.766Z,4.13
2019-05-17T13:36:32.185Z,5.57
2019-05-17T13:39:01.484Z,2.50
2019-05-17T13:41:30.826Z,3.53
2019-05-17T13:44:00.096Z,3.23
2019-05-17T13:46:33.184Z,3.40
2019-05-17T13:49:00.606Z,3.57
2019-05-17T13:51:29.862Z,2.10
2019-05-17T13:53:59.076Z,3.53
2019-05-17T13:56:28.403Z,3.93
2019-05-17T13:58:57.675Z,2.20
2019-05-17T14:01:27.012Z,2.73
2019-05-17T14:03:56.505Z,2.93
2019-05-17T14:06:25.693Z,2.93
2019-05-17T14:08:55.272Z,3.47
2019-05-17T14:11:24.532Z,3.07
2019-05-17T14:13:53.725Z,2.93
2019-05-17T14:16:22.937Z,2.90
2019-05-17T14:18:52.218Z,2.53
2019-05-17T14:21:21.425Z,3.03
2019-05-17T14:23:50.722Z,4.73
2019-05-17T14:26:19.959Z,6.67
2019-05-17T14:28:49.219Z,2.03
2019-05-17T14:31:18.456Z,2.27
2019-05-17T14:33:47.717Z,2.50
2019-05-17T14:36:17.094Z,2.13
2019-05-17T14:38:46.337Z,1.87
2019-05-17T14:41:15.619Z,3.73
2019-05-17T14:43:44.864Z,5.40
2019-05-17T14:46:14.294Z,3.07
2019-05-17T14:48:43.635Z,2.67
2019-05-17T14:51:13.011Z,3.00
2019-05-17T14:53:42.452Z,2.50
2019-05-17T14:56:11.853Z,3.30
2019-05-17T14:58:41.086Z,2.63
2019-05-17T15:01:10.374Z,2.37
2019-05-17T15:03:39.562Z,2.47
2019-05-17T15:06:11.939Z,3.30
2019-05-17T15:08:41.238Z,2.90
2019-05-17T15:11:10.502Z,3.00
2019-05-17T15:13:39.702Z,3.30
2019-05-17T15:16:09.021Z,2.73
2019-05-17T15:18:38.356Z,4.67
2019-05-17T15:21:07.540Z,4.63
2019-05-17T15:23:36.865Z,3.97
2019-05-17T15:26:06.205Z,3.33
2019-05-17T15:28:35.456Z,5.70
2019-05-17T15:31:04.751Z,3.87
2019-05-17T15:33:33.936Z,3.33
2019-05-17T15:36:03.224Z,3.50
2019-05-17T15:38:32.605Z,5.07
2019-05-17T15:41:01.889Z,2.80
2019-05-17T15:43:31.257Z,2.93
2019-05-17T15:46:00.771Z,3.80
2019-05-17T15:48:30.213Z,3.63
2019-05-17T15:50:59.415Z,3.77
2019-05-17T15:53:28.840Z,4.00
2019-05-17T15:55:58.105Z,3.43
2019-05-17T15:58:27.373Z,3.00
2019-05-17T16:00:56.675Z,3.40
2019-05-17T16:03:25.933Z,3.00
2019-05-17T16:05:55.270Z,3.70
2019-05-17T16:08:24.589Z,4.17
2019-05-17T16:10:53.886Z,3.47
2019-05-17T16:13:23.132Z,3.43
2019-05-17T16:15:52.610Z,4.33
2019-05-17T16:18:21.809Z,4.27
2019-05-17T16:20:51.077Z,2.67
2019-05-17T16:23:20.372Z,4.30
2019-05-17T16:25:49.578Z,5.30
2019-05-17T16:28:18.956Z,3.67
2019-05-17T16:30:48.281Z,3.70
2019-05-17T16:33:17.529Z,4.30
2019-05-17T16:35:46.703Z,5.23
2019-05-17T16:38:15.945Z,4.53
2019-05-17T16:40:45.648Z,3.90
2019-05-17T16:43:18.290Z,4.53
2019-05-17T16:45:46.016Z,4.50
2019-05-17T16:48:15.305Z,4.10
2019-05-17T16:50:44.673Z,4.37
2019-05-17T16:53:13.941Z,5.93
2019-05-17T16:55:43.146Z,4.40
2019-05-17T16:58:12.425Z,4.57
2019-05-17T17:00:43.404Z,3.97
2019-05-17T17:03:12.737Z,4.40
2019-05-17T17:05:42.051Z,4.23
2019-05-17T17:08:11.418Z,3.63
2019-05-17T17:10:40.956Z,4.13
2019-05-17T17:13:10.237Z,3.67
2019-05-17T17:15:39.462Z,4.87
2019-05-17T17:18:08.720Z,6.97
2019-05-17T17:20:38.225Z,3.70
2019-05-17T17:23:07.459Z,6.87
2019-05-17T17:25:36.645Z,4.97
2019-05-17T17:28:06.238Z,7.17
2019-05-17T17:30:35.701Z,3.97
2019-05-17T17:33:04.959Z,7.20
2019-05-17T17:35:34.218Z,4.50
2019-05-17T17:38:03.668Z,5.40
2019-05-17T17:40:32.934Z,7.40
2019-05-17T17:43:02.239Z,4.90
2019-05-17T17:45:31.799Z,5.33
2019-05-17T17:48:01.158Z,6.73
2019-05-17T17:50:30.780Z,5.27
2019-05-17T17:53:00.068Z,6.77
2019-05-17T17:55:29.332Z,5.93
2019-05-17T17:57:58.620Z,7.53
2019-05-17T18:00:27.992Z,9.73
2019-05-17T18:02:57.184Z,9.33
2019-05-17T18:05:26.544Z,5.63
2019-05-17T18:07:56.023Z,6.93
2019-05-17T18:10:30.245Z,5.77
2019-05-17T18:12:59.937Z,6.00
2019-05-17T18:15:44.886Z,8.70
2019-05-17T18:18:14.513Z,8.47
2019-05-17T18:20:43.785Z,7.30
2019-05-17T18:23:13.053Z,5.70
2019-05-17T18:25:42.583Z,15.60
2019-05-17T18:28:12.413Z,9.97
2019-05-17T18:30:41.913Z,10.90
2019-05-17T18:33:11.294Z,7.60
2019-05-17T18:35:40.555Z,5.67
2019-05-17T18:38:09.892Z,5.30
2019-05-17T18:40:39.182Z,7.10
2019-05-17T18:43:08.455Z,7.70
2019-05-17T18:45:37.841Z,7.90
2019-05-17T18:48:07.224Z,8.13
2019-05-17T18:50:36.574Z,6.93
2019-05-17T18:53:10.254Z,8.13
2019-05-17T18:55:37.160Z,9.33
2019-05-17T18:58:06.497Z,8.73
2019-05-17T19:00:35.964Z,6.63
2019-05-17T19:03:05.266Z,6.97
2019-05-17T19:05:34.598Z,7.67
2019-05-17T19:08:03.859Z,12.70
2019-05-17T19:10:33.229Z,9.33
2019-05-17T19:13:02.575Z,8.03
2019-05-17T19:15:32.218Z,5.50
2019-05-17T19:18:01.601Z,6.00
2019-05-17T19:20:30.967Z,10.53
2019-05-17T19:23:00.235Z,7.20
2019-05-17T19:25:29.530Z,7.13
2019-05-17T19:27:58.797Z,12.07
2019-05-17T19:30:28.331Z,5.80
2019-05-17T19:32:59.509Z,6.80
2019-05-17T19:35:28.795Z,6.43
2019-05-17T19:37:58.171Z,6.70
2019-05-17T19:40:27.411Z,9.73
2019-05-17T19:42:56.717Z,6.97
2019-05-17T19:45:25.952Z,10.07
2019-05-17T19:47:55.420Z,6.43
2019-05-17T19:50:24.622Z,10.90
2019-05-17T19:52:53.970Z,7.83
2019-05-17T19:55:23.249Z,10.60
2019-05-17T19:57:52.435Z,7.80
2019-05-17T20:00:23.576Z,10.13
2019-05-17T20:02:52.900Z,11.47
2019-05-17T20:05:22.242Z,14.63
2019-05-17T20:07:51.631Z,15.37
2019-05-17T20:10:22.342Z,19.47
2019-05-17T20:12:51.632Z,14.63
2019-05-17T20:15:33.595Z,18.53
2019-05-17T20:17:51.956Z,10.03
2019-05-17T20:20:21.187Z,9.37
2019-05-17T20:22:50.380Z,8.07
2019-05-17T20:25:19.880Z,6.70
2019-05-17T20:27:49.143Z,7.60
2019-05-17T20:30:19.810Z,6.60
2019-05-17T20:32:49.171Z,7.57
2019-05-17T20:35:18.726Z,7.00
2019-05-17T20:37:48.297Z,8.47
2019-05-17T20:40:19.262Z,11.40
2019-05-17T20:42:48.585Z,11.20
2019-05-17T20:45:32.014Z,8.90
2019-05-17T20:47:49.310Z,15.73
2019-05-17T20:50:18.844Z,9.93
2019-05-17T20:52:48.096Z,8.53
2019-05-17T20:55:17.851Z,9.97
2019-05-17T20:57:47.260Z,12.80
2019-05-17T21:00:17.622Z,10.00
2019-05-17T21:02:46.885Z,12.03
2019-05-17T21:05:19.062Z,15.07
2019-05-17T21:07:48.351Z,17.80
2019-05-17T21:10:18.217Z,14.00
2019-05-17T21:12:47.540Z,16.73
2019-05-17T21:15:17.333Z,13.47
2019-05-17T21:17:46.695Z,11.67
2019-05-17T21:20:16.935Z,14.67
2019-05-17T21:22:46.273Z,17.57
2019-05-17T21:25:16.841Z,13.10
2019-05-17T21:27:46.106Z,18.30
2019-05-17T21:30:15.702Z,22.03
2019-05-17T21:32:45.105Z,14.43
2019-05-17T21:35:14.334Z,12.90
2019-05-17T21:37:43.672Z,20.90
2019-05-17T21:40:13.848Z,20.73
2019-05-17T21:42:43.036Z,24.60
2019-05-17T21:45:12.304Z,23.20
2019-05-17T21:47:41.594Z,22.80
2019-05-17T21:50:11.202Z,22.47
2019-05-17T21:52:40.634Z,21.53
2019-05-17T21:55:10.223Z,20.93
2019-05-17T21:57:39.680Z,22.27
2019-05-17T22:00:13.154Z,26.73
2019-05-17T22:02:42.866Z,20.03
2019-05-17T22:05:12.274Z,28.07
2019-05-17T22:07:41.607Z,24.90
2019-05-17T22:10:11.833Z,23.43
2019-05-17T22:12:41.169Z,18.87
2019-05-17T22:15:10.822Z,29.77
2019-05-17T22:17:40.241Z,19.70
2019-05-17T22:20:09.495Z,21.83
2019-05-17T22:22:38.748Z,28.20
2019-05-17T22:25:08.158Z,20.00
2019-05-17T22:27:37.359Z,27.33
2019-05-17T22:30:07.287Z,27.90
2019-05-17T22:32:36.608Z,21.47
2019-05-17T22:35:06.370Z,23.57
2019-05-17T22:37:35.613Z,27.40
2019-05-17T22:40:05.596Z,23.63
2019-05-17T22:42:34.786Z,27.03
2019-05-17T22:45:04.194Z,22.77
2019-05-17T22:47:33.594Z,19.87
2019-05-17T22:50:02.896Z,23.47
2019-05-17T22:52:32.095Z,28.30
2019-05-17T22:55:01.424Z,28.73
2019-05-17T22:57:30.788Z,30.97
2019-05-17T23:00:00.048Z,23.00
2019-05-17T23:02:29.332Z,21.77
2019-05-17T23:04:58.582Z,21.80
2019-05-17T23:07:27.972Z,29.67
2019-05-17T23:09:57.199Z,22.40
2019-05-17T23:12:26.933Z,24.57
2019-05-17T23:14:56.188Z,23.47
2019-05-17T23:17:25.407Z,20.80
2019-05-17T23:19:54.593Z,29.97
2019-05-17T23:22:23.883Z,31.23
2019-05-17T23:24:53.347Z,22.67
2019-05-17T23:27:22.518Z,23.77
2019-05-17T23:29:51.699Z,27.53
2019-05-17T23:32:20.937Z,29.07
2019-05-17T23:34:50.198Z,30.60
2019-05-17T23:37:19.609Z,27.93
2019-05-17T23:39:48.835Z,31.30
2019-05-17T23:42:18.106Z,28.30
2019-05-17T23:44:47.291Z,21.80
2019-05-17T23:47:16.523Z,25.00
2019-05-17T23:49:45.793Z,32.87
2019-05-17T23:52:14.983Z,37.10
2019-05-17T23:54:44.291Z,36.10
2019-05-17T23:57:13.617Z,27.90
2019-05-17T23:59:42.809Z,34.07
